Terminal Aerodrome Forecast
Issued by NWS

Current Version | Previous Version | Text Only | Print | Product List | Glossary On
Versions: 1 2 3 4 5 6 7 8 9 10 11 12 13 14 15 16 17 18 19 20 21 22 23 24 25 26 27 28 29 30 31 32 33
000
FTUS46 KOTX 301727
TAFSFF
TAF
KSFF 301727Z 3018/3118 22009G16KT 6SM -SHRA BR SCT040 OVC070
     FM302000 22014G22KT P6SM VCSH SCT040 BKN060
     FM302130 22016G24KT P6SM -SHRA VCTS BKN050CB BKN070
     FM310030 22012G20KT P6SM SCT060 SCT080
     FM310300 22010KT P6SM SCT060 SCT150
     FM311200 21007KT P6SM FEW035 BKN150=

USA.gov is the U.S. government's official web portal to all federal, state and local government web resources and services.